Time;durP1;ratioP1;P1;durP2;ratioP2;P2;SDS_P1;SDS_P2;PMS_P1;PMS_P2;Temp;Humidity;BMP_temperature;BMP_pressure;BME280_temperature;BME280_humidity;BME280_pressure;Samples;Min_cycle;Max_cycle;Signal;HPM_P1;HPM_P2
2023/01/19 00:01:36;;;;;;;;;24.00;17.67;;;;;7.08;100.00;100442.34;5022078;28;45384;-78
2023/01/19 00:04:01;;;;;;;;;16.00;16.00;;;;;7.17;100.00;100451.47;5016191;28;45556;-78
2023/01/19 00:06:27;;;;;;;;;22.00;18.00;;;;;6.85;100.00;100451.56;5005564;28;45281;-78
2023/01/19 00:08:52;;;;;;;;;28.67;20.00;;;;;6.89;100.00;100448.47;5032378;28;45292;-78
2023/01/19 00:11:18;;;;;;;;;25.75;15.00;;;;;6.96;100.00;100446.94;5023208;28;45368;-78
2023/01/19 00:13:50;;;;;;;;;18.50;14.00;;;;;7.06;100.00;100449.72;5018916;28;45435;-78
2023/01/19 00:16:17;;;;;;;;;26.75;21.00;;;;;7.11;100.00;100452.88;5005225;28;45337;-78
2023/01/19 00:18:44;;;;;;;;;27.50;25.25;;;;;6.93;100.00;100454.47;4998048;28;45590;-79
2023/01/19 00:21:09;;;;;;;;;26.25;23.75;;;;;6.82;100.00;100458.06;5005212;28;46709;-78
2023/01/19 00:23:35;;;;;;;;;21.75;21.00;;;;;6.67;100.00;100456.69;4997131;28;45266;-79
2023/01/19 00:26:00;;;;;;;;;27.00;18.25;;;;;6.57;100.00;100455.78;5020679;28;45416;-78
2023/01/19 00:28:25;;;;;;;;;22.25;17.75;;;;;6.64;100.00;100438.94;5032799;28;45379;-79
2023/01/19 00:30:51;;;;;;;;;28.50;22.25;;;;;6.80;100.00;100454.66;5021638;28;46760;-79
2023/01/19 00:33:16;;;;;;;;;26.25;19.75;;;;;6.65;100.00;100464.06;5034281;28;45644;-79
2023/01/19 00:35:42;;;;;;;;;30.25;24.00;;;;;6.60;100.00;100464.44;5021920;28;45389;-80
2023/01/19 00:38:08;;;;;;;;;27.50;19.75;;;;;6.74;100.00;100462.41;5019597;28;45658;-79
2023/01/19 00:40:33;;;;;;;;;25.50;22.50;;;;;6.59;100.00;100470.84;5017430;28;46744;-79
2023/01/19 00:42:59;;;;;;;;;25.25;20.50;;;;;6.63;100.00;100461.50;5034594;28;45245;-80
2023/01/19 00:45:25;;;;;;;;;24.75;19.75;;;;;6.77;100.00;100471.13;5021909;28;45413;-80
2023/01/19 00:47:55;;;;;;;;;16.75;16.00;;;;;6.77;100.00;100468.44;5019766;28;45486;-79
2023/01/19 00:50:22;;;;;;;;;22.25;13.75;;;;;6.77;100.00;100470.28;5003010;28;45481;-79
2023/01/19 00:52:47;;;;;;;;;27.25;19.00;;;;;6.78;100.00;100467.44;5016307;28;45325;-79
2023/01/19 00:55:15;;;;;;;;;27.50;20.00;;;;;6.90;100.00;100473.63;5019648;28;45480;-79
2023/01/19 00:57:41;;;;;;;;;24.00;16.50;;;;;6.69;100.00;100470.91;5001202;28;45381;-79
2023/01/19 01:00:10;;;;;;;;;22.25;20.00;;;;;6.63;100.00;100476.84;5030902;28;46414;-79
2023/01/19 01:02:36;;;;;;;;;20.00;17.00;;;;;6.58;100.00;100485.31;5018943;28;45312;-79
2023/01/19 01:05:04;;;;;;;;;19.25;19.25;;;;;6.59;100.00;100480.78;4999398;28;45555;-79
2023/01/19 01:07:41;;;;;;;;;33.75;24.25;;;;;6.56;100.00;100486.44;5017760;28;45515;-79
2023/01/19 01:10:08;;;;;;;;;25.00;20.75;;;;;6.54;100.00;100505.47;5017363;28;45587;-79
2023/01/19 01:12:34;;;;;;;;;18.75;17.50;;;;;6.48;100.00;100511.38;5016468;28;45758;-79
2023/01/19 01:14:59;;;;;;;;;19.75;15.50;;;;;6.44;100.00;100498.25;5019104;28;45423;-79
2023/01/19 01:17:25;;;;;;;;;23.50;17.00;;;;;6.56;100.00;100503.50;5019504;28;45391;-79
2023/01/19 01:19:51;;;;;;;;;25.50;20.25;;;;;6.56;100.00;100497.25;5016431;28;46653;-79
2023/01/19 01:22:16;;;;;;;;;11.60;7.80;;;;;6.33;100.00;100514.50;4959975;28;1188657;-79
2023/01/19 01:24:42;;;;;;;;;22.00;15.00;;;;;6.27;100.00;100496.13;5017205;28;45412;-80
2023/01/19 01:27:07;;;;;;;;;21.00;18.75;;;;;6.48;100.00;100508.69;5021348;28;45363;-80
2023/01/19 01:29:34;;;;;;;;;21.00;17.50;;;;;6.63;100.00;100498.44;5020018;28;45392;-80
2023/01/19 01:32:00;;;;;;;;;21.75;20.75;;;;;6.54;100.00;100513.56;5021569;28;45410;-79
2023/01/19 01:34:26;;;;;;;;;25.00;19.75;;;;;6.59;100.00;100515.88;5017918;28;45473;-79
2023/01/19 01:36:51;;;;;;;;;24.00;22.25;;;;;6.77;100.00;100525.13;5022756;28;45225;-80
2023/01/19 01:39:16;;;;;;;;;22.75;22.00;;;;;6.48;100.00;100522.19;5018935;28;46259;-79
2023/01/19 01:41:42;;;;;;;;;17.50;13.50;;;;;6.47;100.00;100528.56;5017680;28;45545;-80
2023/01/19 01:44:48;;;;;;;;;25.00;23.75;;;;;6.38;100.00;100536.53;5033364;28;45184;-80
2023/01/19 01:47:24;;;;;;;;;25.00;19.25;;;;;6.81;100.00;100541.91;5020446;28;45294;-79
2023/01/19 01:49:56;;;;;;;;;18.00;17.00;;;;;6.90;100.00;100539.31;5016671;28;45568;-80
2023/01/19 01:52:24;;;;;;;;;24.75;18.75;;;;;6.77;100.00;100545.88;5035238;28;45792;-80
2023/01/19 01:54:51;;;;;;;;;22.25;19.50;;;;;6.45;100.00;100544.00;5026394;28;45264;-79
2023/01/19 01:57:17;;;;;;;;;28.00;22.00;;;;;6.59;100.00;100550.94;5021020;28;45432;-79
2023/01/19 01:59:47;;;;;;;;;25.25;15.75;;;;;6.80;100.00;100546.44;5016327;28;46617;-79
2023/01/19 02:05:16;;;;;;;;;19.00;17.00;;;;;6.86;100.00;100539.69;5015466;28;45325;-79
2023/01/19 02:13:21;;;;;;;;;26.00;19.50;;;;;6.73;100.00;100537.16;5010570;28;45578;-79
2023/01/19 02:15:52;;;;;;;;;19.00;14.25;;;;;6.87;100.00;100547.66;5037315;28;45352;-78
2023/01/19 02:18:22;;;;;;;;;19.50;16.25;;;;;6.80;100.00;100549.16;5015750;28;45453;-79
2023/01/19 02:21:04;;;;;;;;;20.50;17.75;;;;;6.87;100.00;100549.50;5025466;28;48287;-78
2023/01/19 02:23:37;;;;;;;;;16.50;15.75;;;;;6.72;100.00;100538.13;5019844;28;45465;-79
2023/01/19 02:26:03;;;;;;;;;21.50;18.00;;;;;7.03;100.00;100553.47;5006979;28;45439;-78
2023/01/19 02:28:30;;;;;;;;;22.75;20.75;;;;;7.22;100.00;100551.91;5038535;28;45446;-79
2023/01/19 02:30:55;;;;;;;;;21.25;20.00;;;;;7.25;100.00;100551.63;5022316;28;45564;-79
2023/01/19 02:33:21;;;;;;;;;22.75;20.75;;;;;7.47;100.00;100550.63;5021141;28;45347;-79
2023/01/19 02:35:50;;;;;;;;;24.75;22.75;;;;;7.34;100.00;100551.69;5007272;28;45328;-78
2023/01/19 02:38:19;;;;;;;;;23.50;18.25;;;;;7.38;100.00;100554.97;5022398;28;45431;-79
2023/01/19 02:40:46;;;;;;;;;27.00;23.25;;;;;6.94;100.00;100558.81;5019609;28;48644;-78
2023/01/19 02:43:12;;;;;;;;;17.33;14.33;;;;;6.78;100.00;100559.25;5022672;28;45506;-80
2023/01/19 02:45:38;;;;;;;;;24.25;17.25;;;;;6.72;100.00;100558.91;5040347;28;45379;-79
2023/01/19 02:48:04;;;;;;;;;29.00;24.00;;;;;6.79;100.00;100550.16;5037848;28;45511;-79
2023/01/19 02:50:41;;;;;;;;;19.75;17.75;;;;;6.79;100.00;100549.31;5024744;28;46070;-79
2023/01/19 02:53:31;;;;;;;;;21.50;20.50;;;;;6.92;100.00;100550.84;5021910;28;45399;-79
2023/01/19 02:56:02;;;;;;;;;25.00;21.50;;;;;7.08;100.00;100550.41;5022231;28;45430;-79
2023/01/19 02:58:33;;;;;;;;;21.75;20.00;;;;;6.89;100.00;100553.78;5019748;28;45391;-80
2023/01/19 03:01:40;;;;;;;;;31.25;24.50;;;;;6.79;100.00;100544.75;5023101;28;46362;-80
2023/01/19 03:04:14;;;;;;;;;23.00;18.00;;;;;6.96;100.00;100549.56;5018216;28;45390;-80
2023/01/19 03:06:52;;;;;;;;;21.50;19.75;;;;;6.99;100.00;100556.56;5023351;28;45431;-80
2023/01/19 03:09:40;;;;;;;;;25.00;19.75;;;;;6.99;100.00;100552.03;5017267;28;45419;-80
2023/01/19 03:12:27;;;;;;;;;27.00;20.50;;;;;6.95;100.00;100545.16;5023519;28;45535;-80
2023/01/19 03:15:01;;;;;;;;;23.50;20.50;;;;;7.04;100.00;100551.63;5018286;28;45523;-80
2023/01/19 03:17:30;;;;;;;;;24.50;21.75;;;;;6.97;100.00;100554.00;5022120;28;45157;-80
2023/01/19 03:19:56;;;;;;;;;10.50;5.50;;;;;6.87;100.00;100550.34;5018888;28;45579;-80
2023/01/19 03:22:27;;;;;;;;;19.50;18.75;;;;;6.84;100.00;100542.53;5021405;28;45502;-80
2023/01/19 03:24:58;;;;;;;;;20.50;17.00;;;;;6.88;100.00;100549.38;5018085;28;45487;-79
2023/01/19 03:27:31;;;;;;;;;24.75;18.00;;;;;6.91;100.00;100546.41;5021645;28;45391;-79
2023/01/19 03:30:01;;;;;;;;;21.00;20.25;;;;;6.85;100.00;100528.03;5021293;28;45470;-80
2023/01/19 03:32:34;;;;;;;;;23.00;18.25;;;;;6.97;100.00;100534.22;5003371;28;46549;-79
2023/01/19 03:35:05;;;;;;;;;25.00;21.00;;;;;6.92;100.00;100542.75;5022054;28;45253;-80
2023/01/19 03:37:36;;;;;;;;;25.75;18.50;;;;;6.94;100.00;100548.84;5021527;28;45540;-79
2023/01/19 03:40:02;;;;;;;;;32.50;20.25;;;;;6.95;100.00;100544.28;5017878;28;45609;-80
2023/01/19 03:42:28;;;;;;;;;24.75;19.00;;;;;7.03;100.00;100548.06;5014822;28;46649;-79
2023/01/19 03:44:55;;;;;;;;;24.00;19.75;;;;;6.86;100.00;100550.50;5002023;28;45819;-80
2023/01/19 03:47:22;;;;;;;;;27.50;23.00;;;;;6.81;100.00;100542.78;5014016;28;45464;-79
2023/01/19 03:49:50;;;;;;;;;28.75;21.25;;;;;6.85;100.00;100537.97;5006053;28;45747;-79
2023/01/19 03:52:15;;;;;;;;;28.50;21.50;;;;;7.01;100.00;100563.53;5021897;28;45186;-80
2023/01/19 03:54:41;;;;;;;;;24.50;23.50;;;;;7.01;100.00;100543.81;5038558;28;45339;-79
2023/01/19 03:57:06;;;;;;;;;21.00;17.00;;;;;6.91;100.00;100542.84;5022869;28;45379;-79
2023/01/19 03:59:32;;;;;;;;;21.50;20.75;;;;;6.93;100.00;100560.66;5032965;28;45585;-79
2023/01/19 04:01:57;;;;;;;;;22.50;19.25;;;;;6.82;100.00;100557.13;5005544;28;46881;-78
2023/01/19 04:04:24;;;;;;;;;20.75;18.25;;;;;6.95;100.00;100561.38;5017248;28;45358;-79
2023/01/19 04:06:49;;;;;;;;;24.75;20.25;;;;;6.86;100.00;100554.06;5023727;28;45520;-79
2023/01/19 04:09:15;;;;;;;;;27.75;25.25;;;;;6.95;100.00;100566.75;5017644;28;45681;-79
2023/01/19 04:11:40;;;;;;;;;26.50;24.00;;;;;7.02;100.00;100557.16;5038585;28;46051;-79
2023/01/19 04:14:06;;;;;;;;;21.50;16.25;;;;;7.03;100.00;100552.59;4999376;28;45880;-79
2023/01/19 04:16:31;;;;;;;;;28.25;25.75;;;;;6.95;100.00;100565.91;5023296;28;45466;-80
2023/01/19 04:18:56;;;;;;;;;40.00;28.00;;;;;6.87;100.00;100554.88;4999193;28;45396;-79
2023/01/19 04:21:22;;;;;;;;;25.75;25.75;;;;;6.96;100.00;100551.41;5022947;28;47048;-79
2023/01/19 04:23:48;;;;;;;;;30.75;25.50;;;;;7.05;100.00;100561.44;5017263;28;45391;-79
2023/01/19 04:26:14;;;;;;;;;28.75;23.75;;;;;7.13;100.00;100560.81;5023606;28;45488;-80
2023/01/19 04:28:39;;;;;;;;;28.00;25.75;;;;;7.07;100.00;100559.47;5019163;28;45554;-79
2023/01/19 04:31:06;;;;;;;;;27.00;23.25;;;;;6.89;100.00;100547.53;5022995;28;45431;-79
2023/01/19 04:33:32;;;;;;;;;16.50;15.00;;;;;6.85;100.00;100555.03;5018184;28;45511;-79
2023/01/19 04:35:57;;;;;;;;;23.50;21.75;;;;;6.84;100.00;100544.38;5023280;28;45388;-79
2023/01/19 04:38:24;;;;;;;;;31.00;20.75;;;;;6.87;100.00;100542.25;5019280;28;45490;-79
2023/01/19 04:40:51;;;;;;;;;24.00;20.25;;;;;6.66;100.00;100538.66;5022896;28;45415;-80
2023/01/19 04:43:17;;;;;;;;;31.25;22.00;;;;;6.80;100.00;100557.25;5017758;28;45461;-80
2023/01/19 04:45:45;;;;;;;;;24.25;21.75;;;;;6.79;100.00;100554.72;5022771;28;45504;-79
2023/01/19 04:48:11;;;;;;;;;21.25;21.00;;;;;6.72;100.00;100543.53;5002940;28;45368;-80
2023/01/19 04:50:37;;;;;;;;;21.00;19.25;;;;;6.71;100.00;100536.44;5018848;28;47215;-79
2023/01/19 04:53:02;;;;;;;;;25.50;20.50;;;;;6.73;100.00;100555.19;5020375;28;45344;-79
2023/01/19 04:55:28;;;;;;;;;23.50;20.50;;;;;6.72;100.00;100548.13;5023861;28;45432;-79
2023/01/19 04:57:53;;;;;;;;;28.00;24.50;;;;;6.47;100.00;100541.19;5020720;28;45422;-79
2023/01/19 05:00:19;;;;;;;;;23.75;21.75;;;;;6.43;100.00;100548.66;5005702;28;47914;-79
2023/01/19 05:02:45;;;;;;;;;26.50;25.00;;;;;6.44;100.00;100560.31;5018783;28;45381;-79
2023/01/19 05:05:11;;;;;;;;;28.25;25.25;;;;;6.45;100.00;100552.09;5019033;28;45536;-80
2023/01/19 05:07:36;;;;;;;;;36.50;29.50;;;;;6.60;100.00;100555.38;5021598;28;45422;-80
2023/01/19 05:10:02;;;;;;;;;23.50;21.75;;;;;6.55;100.00;100546.81;5001015;28;47991;-80
2023/01/19 05:12:28;;;;;;;;;26.00;21.25;;;;;6.53;100.00;100532.56;5020025;28;45749;-81
2023/01/19 05:14:53;;;;;;;;;19.50;12.75;;;;;6.51;100.00;100545.34;5020891;28;45419;-79
2023/01/19 05:17:19;;;;;;;;;31.50;27.00;;;;;6.58;100.00;100538.44;5020725;28;45322;-79
2023/01/19 05:19:44;;;;;;;;;22.75;19.25;;;;;6.70;100.00;100563.56;5017875;28;46284;-79
2023/01/19 05:22:09;;;;;;;;;28.25;25.50;;;;;6.68;100.00;100552.91;5003493;28;45331;-79
2023/01/19 05:24:35;;;;;;;;;26.25;20.75;;;;;6.62;100.00;100550.72;5014395;28;45455;-81
2023/01/19 05:27:00;;;;;;;;;24.00;18.25;;;;;6.28;100.00;100555.34;5005102;28;45404;-79
2023/01/19 05:29:26;;;;;;;;;27.25;20.75;;;;;6.22;100.00;100556.69;5018406;28;46031;-81
2023/01/19 05:31:51;;;;;;;;;21.00;21.00;;;;;6.39;100.00;100557.16;5022752;28;45327;-79
2023/01/19 05:34:17;;;;;;;;;24.50;20.25;;;;;6.42;100.00;100563.16;5017712;28;45335;-79
2023/01/19 05:36:42;;;;;;;;;18.50;16.25;;;;;6.31;100.00;100565.88;5023008;28;45311;-80
2023/01/19 05:39:08;;;;;;;;;19.00;13.00;;;;;6.23;100.00;100557.56;5019435;28;45476;-78
2023/01/19 05:41:33;;;;;;;;;23.25;18.00;;;;;6.19;100.00;100556.97;5021698;28;45316;-78
2023/01/19 05:43:59;;;;;;;;;20.00;16.00;;;;;6.37;100.00;100561.81;4999076;28;45458;-78
2023/01/19 05:46:24;;;;;;;;;19.00;13.75;;;;;6.34;100.00;100562.09;5023056;28;45681;-78
2023/01/19 05:48:50;;;;;;;;;24.75;19.00;;;;;6.29;100.00;100551.66;5000779;28;47193;-77
2023/01/19 05:51:15;;;;;;;;;26.50;14.75;;;;;6.30;100.00;100547.09;5022432;28;45355;-77
2023/01/19 05:53:41;;;;;;;;;20.25;19.25;;;;;6.32;100.00;100556.81;4997940;28;45580;-77
2023/01/19 05:56:08;;;;;;;;;15.50;12.25;;;;;6.29;100.00;100558.88;5021642;28;45359;-77
2023/01/19 05:58:35;;;;;;;;;26.50;20.75;;;;;6.34;100.00;100570.19;5019420;28;45510;-79
2023/01/19 06:01:07;;;;;;;;;20.75;19.25;;;;;6.38;100.00;100572.47;5024611;28;45190;-78
2023/01/19 06:03:34;;;;;;;;;22.50;19.50;;;;;6.31;100.00;100544.28;5020078;28;45424;-79
2023/01/19 06:06:00;;;;;;;;;22.50;16.25;;;;;6.36;100.00;100571.75;5004508;28;45804;-78
2023/01/19 06:08:25;;;;;;;;;16.25;12.75;;;;;6.38;100.00;100560.84;5012152;28;47612;-77
2023/01/19 06:10:51;;;;;;;;;21.00;19.50;;;;;6.38;100.00;100560.84;5020235;28;45405;-78
2023/01/19 06:13:17;;;;;;;;;18.00;14.25;;;;;6.41;100.00;100549.78;5012238;28;45493;-79
2023/01/19 06:15:43;;;;;;;;;16.50;12.25;;;;;6.48;100.00;100567.19;5024221;28;45241;-78
2023/01/19 06:18:09;;;;;;;;;22.50;17.00;;;;;6.42;100.00;100560.47;5020692;28;45740;-78
2023/01/19 06:20:35;;;;;;;;;18.25;18.25;;;;;6.48;100.00;100561.81;5020248;28;45443;-78
2023/01/19 06:23:01;;;;;;;;;22.25;16.25;;;;;6.46;100.00;100558.34;5012332;28;45522;-79
2023/01/19 06:25:26;;;;;;;;;13.00;13.00;;;;;6.52;100.00;100568.66;5024779;28;45524;-76
2023/01/19 06:27:52;;;;;;;;;19.75;16.25;;;;;6.48;100.00;100567.19;5017971;28;46863;-77
2023/01/19 06:30:18;;;;;;;;;15.25;13.50;;;;;6.43;100.00;100569.44;5006598;28;45344;-76
2023/01/19 06:32:43;;;;;;;;;15.25;15.00;;;;;6.48;100.00;100580.69;5003113;28;45293;-82
2023/01/19 06:35:09;;;;;;;;;17.50;13.25;;;;;6.38;100.00;100572.47;5025100;28;45391;-76
2023/01/19 06:37:35;;;;;;;;;17.25;16.25;;;;;6.42;100.00;100579.38;5022612;28;45464;-77
2023/01/19 06:40:01;;;;;;;;;32.25;27.50;;;;;6.49;100.00;100585.97;5020967;28;45218;-79
2023/01/19 06:42:26;;;;;;;;;26.75;23.25;;;;;6.39;100.00;100571.50;5022523;28;45522;-76
2023/01/19 06:44:51;;;;;;;;;18.50;16.25;;;;;6.36;100.00;100581.69;5022998;28;45403;-76
2023/01/19 06:47:17;;;;;;;;;20.00;16.00;;;;;6.45;100.00;100581.78;5021946;28;46368;-77
2023/01/19 06:49:43;;;;;;;;;20.00;20.00;;;;;6.43;100.00;100575.66;5022534;28;46172;-75
2023/01/19 06:52:10;;;;;;;;;17.75;14.25;;;;;6.47;100.00;100596.03;5039245;28;45222;-77
2023/01/19 06:54:36;;;;;;;;;21.25;16.00;;;;;6.38;100.00;100587.81;5034150;28;45399;-76
2023/01/19 06:57:02;;;;;;;;;21.00;17.00;;;;;6.48;100.00;100594.19;5005632;28;47269;-75
2023/01/19 06:59:27;;;;;;;;;20.50;17.00;;;;;6.39;100.00;100584.13;5018279;28;45429;-77
2023/01/19 07:01:52;;;;;;;;;21.75;17.00;;;;;6.27;100.00;100580.63;5024245;28;45410;-76
2023/01/19 07:04:19;;;;;;;;;16.25;15.00;;;;;6.31;100.00;100602.78;5018106;28;45558;-77
2023/01/19 07:06:44;;;;;;;;;15.25;12.00;;;;;6.41;100.00;100596.53;5022379;28;46718;-78
2023/01/19 07:09:12;;;;;;;;;19.25;14.50;;;;;6.48;100.00;100604.97;5031990;28;45340;-76
2023/01/19 07:11:37;;;;;;;;;12.00;10.00;;;;;6.36;100.00;100600.56;5023086;28;45450;-75
2023/01/19 07:14:03;;;;;;;;;17.75;12.00;;;;;6.45;100.00;100599.81;5014186;28;45129;-76
2023/01/19 07:16:28;;;;;;;;;15.50;15.50;;;;;6.40;100.00;100593.94;5023699;28;45311;-77
2023/01/19 07:18:54;;;;;;;;;15.75;11.25;;;;;6.40;100.00;100585.84;5000152;28;46324;-77
2023/01/19 07:21:20;;;;;;;;;18.50;13.00;;;;;6.41;100.00;100588.44;5023918;28;45362;-76
2023/01/19 07:23:52;;;;;;;;;16.50;13.50;;;;;6.47;100.00;100592.47;5001081;28;45450;-75
2023/01/19 07:26:20;;;;;;;;;16.25;12.50;;;;;6.42;100.00;100584.75;5020370;28;45343;-77
2023/01/19 07:28:48;;;;;;;;;10.50;10.50;;;;;6.42;100.00;100586.59;5017753;28;45490;-75
2023/01/19 07:31:14;;;;;;;;;13.25;12.25;;;;;6.47;100.00;100592.47;5023372;28;45316;-75
2023/01/19 07:33:40;;;;;;;;;16.00;13.00;;;;;6.52;100.00;100601.03;5020830;28;45336;-79
2023/01/19 07:36:07;;;;;;;;;16.00;12.00;;;;;6.53;100.00;100600.06;5022352;28;46198;-75
2023/01/19 07:38:32;;;;;;;;;7.25;7.25;;;;;6.35;100.00;100588.94;5020797;28;45504;-76
2023/01/19 07:41:02;;;;;;;;;13.75;11.50;;;;;6.45;100.00;100599.81;5023495;28;45319;-76
2023/01/19 07:43:27;;;;;;;;;10.33;9.67;;;;;6.46;100.00;100604.25;5020752;28;45494;-76
2023/01/19 07:46:00;;;;;;;;;15.00;12.33;;;;;6.41;100.00;100592.97;5018617;28;46831;-77
2023/01/19 07:48:26;;;;;;;;;12.00;9.75;;;;;6.19;100.00;100562.34;5020690;28;45431;-76
2023/01/19 07:50:52;;;;;;;;;13.00;8.67;;;;;6.54;100.00;100607.16;5037980;28;45505;-76
2023/01/19 07:53:18;;;;;;;;;11.00;8.75;;;;;6.56;100.00;100608.78;5016548;28;45600;-77
2023/01/19 07:55:43;;;;;;;;;13.00;12.00;;;;;6.54;100.00;100593.69;5021352;28;48030;-77
2023/01/19 07:58:09;;;;;;;;;13.75;11.50;;;;;6.63;100.00;100598.31;5019321;28;45935;-77
2023/01/19 08:00:36;;;;;;;;;12.00;11.00;;;;;6.70;100.00;100614.88;5034342;28;45549;-79
2023/01/19 08:03:03;;;;;;;;;8.75;7.50;;;;;6.73;100.00;100611.91;5016051;28;45459;-76
2023/01/19 08:05:29;;;;;;;;;12.25;11.00;;;;;6.76;100.00;100620.63;4999323;28;46972;-77
2023/01/19 08:07:59;;;;;;;;;12.50;12.50;;;;;6.81;100.00;100618.38;5019530;28;45505;-75
2023/01/19 08:10:26;;;;;;;;;16.25;12.75;;;;;6.85;100.00;100624.41;5035696;28;45470;-75
2023/01/19 08:12:55;;;;;;;;;14.25;12.50;;;;;6.93;100.00;100622.78;5021698;28;45474;-75
2023/01/19 08:15:22;;;;;;;;;18.75;14.50;;;;;7.07;100.00;100623.47;5022788;28;45399;-79
2023/01/19 08:17:59;;;;;;;;;13.25;12.50;;;;;7.07;100.00;100613.50;5018074;28;45503;-76
2023/01/19 08:20:26;;;;;;;;;21.00;17.75;;;;;7.20;100.00;100624.13;5020187;28;45379;-75
2023/01/19 08:22:58;;;;;;;;;25.50;23.00;;;;;7.28;100.00;100624.34;5000326;28;45182;-76
2023/01/19 08:25:43;;;;;;;;;16.75;13.50;;;;;7.35;100.00;100620.13;5003988;28;47132;-76
2023/01/19 08:28:11;;;;;;;;;19.25;16.50;;;;;7.46;100.00;100628.16;5001841;28;45553;-75
2023/01/19 08:30:38;;;;;;;;;25.50;15.75;;;;;7.43;100.00;100632.00;5021277;28;45447;-76
2023/01/19 08:33:06;;;;;;;;;27.50;21.25;;;;;7.46;100.00;100620.06;5019256;28;45281;-77
2023/01/19 08:35:37;;;;;;;;;22.25;19.25;;;;;7.56;100.00;100622.84;5004866;28;47171;-75
2023/01/19 08:38:05;;;;;;;;;25.75;18.50;;;;;7.63;100.00;100619.47;5019966;28;45265;-76
2023/01/19 08:40:33;;;;;;;;;20.75;17.25;;;;;7.75;100.00;100628.34;5004372;28;45464;-76
2023/01/19 08:43:02;;;;;;;;;19.25;16.50;;;;;7.74;100.00;100619.38;5019085;28;45537;-74
2023/01/19 08:45:28;;;;;;;;;25.50;23.75;;;;;7.76;100.00;100620.09;5022402;28;45275;-74
2023/01/19 08:47:55;;;;;;;;;19.75;15.50;;;;;7.88;100.00;100629.03;5001482;28;45282;-75
2023/01/19 08:50:21;;;;;;;;;24.75;20.75;;;;;7.88;100.00;100620.91;5022688;28;45384;-75
2023/01/19 08:52:46;;;;;;;;;25.25;21.25;;;;;8.01;100.00;100626.09;5019168;28;45411;-75
2023/01/19 08:55:12;;;;;;;;;20.50;14.50;;;;;7.99;100.00;100622.66;5022362;28;45515;-76
2023/01/19 08:57:37;;;;;;;;;19.50;17.75;;;;;8.11;100.00;100629.69;5002216;28;45345;-76
2023/01/19 09:00:03;;;;;;;;;19.75;16.75;;;;;8.07;100.00;100612.88;5018451;28;45320;-75
2023/01/19 09:02:29;;;;;;;;;22.75;21.25;;;;;8.21;100.00;100633.28;5021005;28;45560;-75
2023/01/19 09:04:54;;;;;;;;;20.50;19.25;;;;;8.09;100.00;100631.69;4999994;28;47207;-77
2023/01/19 09:07:20;;;;;;;;;21.75;19.50;;;;;8.14;100.00;100642.94;5021006;28;45240;-76
2023/01/19 09:09:45;;;;;;;;;25.75;18.75;;;;;8.37;100.00;100639.09;5033584;28;45420;-77
2023/01/19 09:12:10;;;;;;;;;22.50;19.50;;;;;8.52;100.00;100634.16;5020268;28;45524;-75
2023/01/19 09:14:36;;;;;;;;;29.75;26.00;;;;;8.70;100.00;100634.31;5016483;28;45385;-75
2023/01/19 09:17:01;;;;;;;;;26.75;21.75;;;;;8.93;100.00;100624.97;5022257;28;45421;-75
2023/01/19 09:19:26;;;;;;;;;19.33;17.33;;;;;8.64;100.00;100640.31;5014453;28;45786;-76
2023/01/19 09:21:53;;;;;;;;;18.75;18.75;;;;;8.43;100.00;100643.97;5001136;28;45339;-75
2023/01/19 09:24:18;;;;;;;;;18.50;18.50;;;;;8.11;100.00;100627.81;5015236;28;46934;-76
2023/01/19 09:26:44;;;;;;;;;21.00;19.25;;;;;8.28;100.00;100634.47;5033682;28;45315;-76
2023/01/19 09:29:09;;;;;;;;;14.67;14.67;;;;;8.52;100.00;100624.19;4997398;28;45329;-76
2023/01/19 09:31:34;;;;;;;;;22.50;19.75;;;;;8.66;100.00;100630.19;5003758;28;45300;-75
2023/01/19 09:34:00;;;;;;;;;27.00;20.50;;;;;8.80;100.00;100625.25;5003140;28;46579;-75
2023/01/19 09:36:25;;;;;;;;;22.00;22.00;;;;;8.93;100.00;100635.81;5004765;28;45487;-74
2023/01/19 09:38:50;;;;;;;;;19.00;17.75;;;;;8.97;100.00;100631.84;5003515;28;45293;-75
2023/01/19 09:41:20;;;;;;;;;20.75;19.00;;;;;8.94;100.00;100632.97;5006306;28;45664;-75
2023/01/19 09:43:58;;;;;;;;;24.50;23.25;;;;;8.97;100.00;100639.97;5004136;28;45453;-75
2023/01/19 09:46:38;;;;;;;;;29.00;24.25;;;;;9.01;100.00;100644.09;5005462;28;45343;-76
2023/01/19 09:49:18;;;;;;;;;28.25;23.25;;;;;8.98;100.00;100638.97;5004363;28;45474;-76
2023/01/19 09:51:47;;;;;;;;;28.50;26.25;;;;;9.04;100.00;100640.25;5027654;28;45601;-76
2023/01/19 09:54:39;;;;;;;;;28.50;26.75;;;;;9.13;100.00;100645.66;4999129;28;45497;-75
2023/01/19 09:57:12;;;;;;;;;25.50;22.75;;;;;9.20;100.00;100640.56;5030564;28;45530;-74
2023/01/19 09:59:38;;;;;;;;;22.00;21.25;;;;;9.30;100.00;100638.69;5029055;28;45343;-75
2023/01/19 10:02:22;;;;;;;;;25.50;24.00;;;;;9.41;100.00;100646.69;5005462;28;45427;-73
2023/01/19 10:04:53;;;;;;;;;32.75;24.75;;;;;9.50;100.00;100640.38;5013892;28;46366;-74
2023/01/19 10:07:40;;;;;;;;;38.25;29.50;;;;;9.43;100.00;100644.66;5004009;28;46478;-74
2023/01/19 10:10:19;;;;;;;;;36.25;27.75;;;;;9.32;100.00;100642.97;5013980;28;45430;-73
2023/01/19 10:12:50;;;;;;;;;32.75;26.25;;;;;9.34;100.00;100640.97;5002486;28;45336;-75
2023/01/19 10:15:40;;;;;;;;;23.50;19.75;;;;;9.32;100.00;100648.38;5017121;28;46871;-74
2023/01/19 10:18:21;;;;;;;;;27.75;24.50;;;;;9.48;100.00;100646.97;4999017;28;45715;-74
2023/01/19 10:20:59;;;;;;;;;41.75;35.25;;;;;9.40;100.00;100623.28;5004099;28;45401;-77
2023/01/19 10:23:35;;;;;;;;;29.25;24.75;;;;;9.31;100.00;100641.25;5016841;28;45553;-74
2023/01/19 10:26:08;;;;;;;;;40.75;35.25;;;;;9.21;100.00;100645.81;5024741;28;45705;-74
2023/01/19 10:28:36;;;;;;;;;27.50;25.25;;;;;9.32;100.00;100642.97;5020363;28;45414;-75
2023/01/19 10:31:05;;;;;;;;;28.75;26.50;;;;;9.16;100.00;100642.69;5006658;28;45383;-75
2023/01/19 10:33:32;;;;;;;;;32.00;26.75;;;;;9.26;100.00;100632.69;5022777;28;45473;-76
2023/01/19 10:35:57;;;;;;;;;30.25;29.50;;;;;9.28;100.00;100629.81;5018939;28;46321;-76
2023/01/19 10:38:23;;;;;;;;;31.00;27.75;;;;;9.29;100.00;100631.53;5021645;28;45244;-76
2023/01/19 10:41:10;;;;;;;;;31.75;27.25;;;;;9.15;100.00;100613.00;5039701;28;45612;-74
2023/01/19 10:43:38;;;;;;;;;32.75;28.75;;;;;9.31;100.00;100634.97;5022157;28;45689;-76
2023/01/19 10:46:05;;;;;;;;;32.75;26.50;;;;;9.24;100.00;100618.44;5024034;28;45507;-75
2023/01/19 10:48:41;;;;;;;;;34.00;27.50;;;;;9.30;100.00;100623.28;5001726;28;45533;-76
2023/01/19 10:51:08;;;;;;;;;23.75;22.50;;;;;9.36;100.00;100622.69;5022209;28;45497;-76
2023/01/19 10:53:34;;;;;;;;;31.75;27.25;;;;;9.30;100.00;100611.56;5001365;28;45495;-76
2023/01/19 10:56:20;;;;;;;;;47.25;38.50;;;;;9.39;100.00;100616.13;5037537;28;46723;-76
2023/01/19 10:58:46;;;;;;;;;26.25;21.25;;;;;9.20;100.00;100616.16;5012518;28;45584;-75
2023/01/19 11:01:16;;;;;;;;;22.00;14.50;;;;;9.25;100.00;100611.16;5019667;28;45454;-76
2023/01/19 11:03:42;;;;;;;;;29.50;25.25;;;;;9.43;100.00;100613.97;5011659;28;45431;-75
2023/01/19 11:06:20;;;;;;;;;26.00;26.00;;;;;9.45;100.00;100607.41;5006378;28;46927;-76
2023/01/19 11:08:47;;;;;;;;;37.75;31.75;;;;;9.40;100.00;100601.59;5017185;28;45362;-74
2023/01/19 11:11:13;;;;;;;;;42.25;33.00;;;;;9.42;100.00;100598.72;5006268;28;45305;-75
2023/01/19 11:13:40;;;;;;;;;34.25;32.75;;;;;9.43;100.00;100612.13;5032897;28;45512;-76
2023/01/19 11:16:15;;;;;;;;;44.25;36.75;;;;;9.49;100.00;100608.00;5023821;28;46559;-76
2023/01/19 11:18:42;;;;;;;;;37.75;33.50;;;;;9.43;100.00;100590.44;5017303;28;46640;-76
2023/01/19 11:21:12;;;;;;;;;35.75;28.50;;;;;9.45;100.00;100598.44;5019355;28;45436;-74
2023/01/19 11:23:45;;;;;;;;;34.75;28.75;;;;;9.57;100.00;100589.16;5031966;28;45430;-76